sensor_id;sensor_type;location;lat;lon;timestamp;pressure;altitude;pressure_sealevel;temperature;humidity
64354;BME280;50681;53.334;-6.536;2023-02-18T00:00:19;101135.84;;;10.82;100.00
64354;BME280;50681;53.334;-6.536;2023-02-18T00:02:46;101117.53;;;10.68;100.00
64354;BME280;50681;53.334;-6.536;2023-02-18T00:05:12;101129.13;;;10.79;100.00
64354;BME280;50681;53.334;-6.536;2023-02-18T00:07:39;101115.38;;;10.70;100.00
64354;BME280;50681;53.334;-6.536;2023-02-18T00:10:08;101120.50;;;10.72;100.00
64354;BME280;50681;53.334;-6.536;2023-02-18T00:12:35;101122.41;;;10.66;100.00
64354;BME280;50681;53.334;-6.536;2023-02-18T00:15:00;101114.28;;;10.71;100.00
64354;BME280;50681;53.334;-6.536;2023-02-18T00:17:27;101121.03;;;10.79;100.00
64354;BME280;50681;53.334;-6.536;2023-02-18T00:19:53;101088.94;;;10.62;100.00
64354;BME280;50681;53.334;-6.536;2023-02-18T00:22:22;101107.84;;;10.62;100.00
64354;BME280;50681;53.334;-6.536;2023-02-18T00:24:50;101103.50;;;10.61;100.00
64354;BME280;50681;53.334;-6.536;2023-02-18T00:27:16;101102.97;;;10.64;100.00
64354;BME280;50681;53.334;-6.536;2023-02-18T00:29:42;101086.81;;;10.54;100.00
64354;BME280;50681;53.334;-6.536;2023-02-18T00:32:08;101102.97;;;10.64;100.00
64354;BME280;50681;53.334;-6.536;2023-02-18T00:34:33;101099.72;;;10.62;100.00
64354;BME280;50681;53.334;-6.536;2023-02-18T00:36:58;101114.31;;;10.61;100.00
64354;BME280;50681;53.334;-6.536;2023-02-18T00:39:24;101114.31;;;10.61;100.00
64354;BME280;50681;53.334;-6.536;2023-02-18T00:41:50;101104.66;;;10.55;100.00
64354;BME280;50681;53.334;-6.536;2023-02-18T00:44:16;101122.47;;;10.56;100.00
64354;BME280;50681;53.334;-6.536;2023-02-18T00:46:42;101116.78;;;10.52;100.00
64354;BME280;50681;53.334;-6.536;2023-02-18T00:49:08;101105.47;;;10.45;100.00
64354;BME280;50681;53.334;-6.536;2023-02-18T00:51:35;101105.19;;;10.52;100.00
64354;BME280;50681;53.334;-6.536;2023-02-18T00:54:02;101107.63;;;10.43;100.00
64354;BME280;50681;53.334;-6.536;2023-02-18T00:56:28;101109.78;;;10.46;100.00
64354;BME280;50681;53.334;-6.536;2023-02-18T00:58:54;101116.25;;;10.50;100.00
64354;BME280;50681;53.334;-6.536;2023-02-18T01:01:19;101109.78;;;10.51;100.00
64354;BME280;50681;53.334;-6.536;2023-02-18T01:03:45;101129.50;;;10.52;100.00
64354;BME280;50681;53.334;-6.536;2023-02-18T01:06:11;101125.72;;;10.53;100.00
64354;BME280;50681;53.334;-6.536;2023-02-18T01:08:38;101106.28;;;10.51;100.00
64354;BME280;50681;53.334;-6.536;2023-02-18T01:11:04;101096.56;;;10.44;100.00
64354;BME280;50681;53.334;-6.536;2023-02-18T01:13:30;101099.81;;;10.41;100.00
64354;BME280;50681;53.334;-6.536;2023-02-18T01:15:56;101106.81;;;10.48;100.00
64354;BME280;50681;53.334;-6.536;2023-02-18T01:18:23;101101.66;;;10.51;100.00
64354;BME280;50681;53.334;-6.536;2023-02-18T01:20:49;101107.59;;;10.53;100.00
64354;BME280;50681;53.334;-6.536;2023-02-18T01:23:16;101106.00;;;10.47;100.00
64354;BME280;50681;53.334;-6.536;2023-02-18T01:25:41;101098.22;;;10.40;100.00
64354;BME280;50681;53.334;-6.536;2023-02-18T01:28:08;101109.00;;;10.46;100.00
64354;BME280;50681;53.334;-6.536;2023-02-18T01:30:33;101114.94;;;10.48;100.00
64354;BME280;50681;53.334;-6.536;2023-02-18T01:32:59;101098.72;;;10.48;100.00
64354;BME280;50681;53.334;-6.536;2023-02-18T01:35:25;101074.44;;;10.42;100.00
64354;BME280;50681;53.334;-6.536;2023-02-18T01:37:51;101110.06;;;10.50;100.00
64354;BME280;50681;53.334;-6.536;2023-02-18T01:40:20;101103.84;;;10.49;100.00
64354;BME280;50681;53.334;-6.536;2023-02-18T01:42:46;101102.00;;;10.39;100.00
64354;BME280;50681;53.334;-6.536;2023-02-18T01:45:41;101111.06;;;10.69;100.00
64354;BME280;50681;53.334;-6.536;2023-02-18T01:48:16;101113.28;;;10.52;100.00
64354;BME280;50681;53.334;-6.536;2023-02-18T01:50:46;101087.91;;;10.53;100.00
64354;BME280;50681;53.334;-6.536;2023-02-18T01:53:16;101094.44;;;10.41;100.00
64354;BME280;50681;53.334;-6.536;2023-02-18T01:55:43;101105.22;;;10.47;100.00
64354;BME280;50681;53.334;-6.536;2023-02-18T01:58:10;101127.34;;;10.54;100.00
64354;BME280;50681;53.334;-6.536;2023-02-18T02:00:37;101121.41;;;10.52;100.00
64354;BME280;50681;53.334;-6.536;2023-02-18T02:03:03;101106.81;;;10.48;100.00
64354;BME280;50681;53.334;-6.536;2023-02-18T02:05:32;101129.50;;;10.52;100.00
64354;BME280;50681;53.334;-6.536;2023-02-18T02:07:59;101124.34;;;10.50;100.00
64354;BME280;50681;53.334;-6.536;2023-02-18T02:13:20;101131.06;;;10.63;100.00
64354;BME280;50681;53.334;-6.536;2023-02-18T02:15:50;101134.84;;;10.62;100.00
64354;BME280;50681;53.334;-6.536;2023-02-18T02:32:20;101124.56;;;10.64;100.00
64354;BME280;50681;53.334;-6.536;2023-02-18T02:34:52;101131.59;;;10.65;100.00
64354;BME280;50681;53.334;-6.536;2023-02-18T02:37:25;101118.06;;;10.70;100.00
64354;BME280;50681;53.334;-6.536;2023-02-18T02:45:10;101121.81;;;10.80;100.00
64354;BME280;50681;53.334;-6.536;2023-02-18T02:47:50;101121.84;;;10.74;100.00
64354;BME280;50681;53.334;-6.536;2023-02-18T02:50:27;101118.34;;;10.69;100.00
64354;BME280;50681;53.334;-6.536;2023-02-18T02:52:59;101142.13;;;10.67;100.00
64354;BME280;50681;53.334;-6.536;2023-02-18T02:55:26;101118.38;;;10.64;100.00
64354;BME280;50681;53.334;-6.536;2023-02-18T02:57:53;101144.50;;;10.84;100.00
64354;BME280;50681;53.334;-6.536;2023-02-18T03:00:24;101126.50;;;10.58;100.00
64354;BME280;50681;53.334;-6.536;2023-02-18T03:03:18;101109.75;;;10.56;100.00
64354;BME280;50681;53.334;-6.536;2023-02-18T03:06:10;101149.41;;;10.66;100.00
64354;BME280;50681;53.334;-6.536;2023-02-18T03:08:55;101157.50;;;10.66;100.00
64354;BME280;50681;53.334;-6.536;2023-02-18T03:11:28;101144.84;;;10.62;100.00
64354;BME280;50681;53.334;-6.536;2023-02-18T03:16:43;101158.66;;;10.55;100.00
64354;BME280;50681;53.334;-6.536;2023-02-18T03:19:21;101153.28;;;10.44;100.00
64354;BME280;50681;53.334;-6.536;2023-02-18T03:21:57;101136.00;;;10.30;100.00
64354;BME280;50681;53.334;-6.536;2023-02-18T03:24:37;101130.06;;;10.23;100.00
64354;BME280;50681;53.334;-6.536;2023-02-18T03:27:07;101130.84;;;10.28;100.00
64354;BME280;50681;53.334;-6.536;2023-02-18T03:29:34;101131.94;;;10.27;100.00
64354;BME280;50681;53.334;-6.536;2023-02-18T03:32:02;101144.91;;;10.41;100.00
64354;BME280;50681;53.334;-6.536;2023-02-18T03:34:31;101131.13;;;10.27;100.00
64354;BME280;50681;53.334;-6.536;2023-02-18T03:36:59;101118.44;;;10.22;100.00
64354;BME280;50681;53.334;-6.536;2023-02-18T03:39:28;101126.53;;;10.27;100.00
64354;BME280;50681;53.334;-6.536;2023-02-18T03:41:54;101141.38;;;10.35;100.00
64354;BME280;50681;53.334;-6.536;2023-02-18T03:44:19;101150.81;;;10.38;100.00
64354;BME280;50681;53.334;-6.536;2023-02-18T03:46:45;101155.69;;;10.41;100.00
64354;BME280;50681;53.334;-6.536;2023-02-18T03:49:12;101126.00;;;10.25;100.00
64354;BME280;50681;53.334;-6.536;2023-02-18T03:51:38;101165.16;;;10.18;100.00
64354;BME280;50681;53.334;-6.536;2023-02-18T03:54:04;101150.59;;;10.08;100.00
64354;BME280;50681;53.334;-6.536;2023-02-18T03:56:29;101168.09;;;10.16;100.00
64354;BME280;50681;53.334;-6.536;2023-02-18T03:58:55;101164.34;;;9.96;100.00
64354;BME280;50681;53.334;-6.536;2023-02-18T04:01:21;101143.84;;;9.80;100.00
64354;BME280;50681;53.334;-6.536;2023-02-18T04:03:46;101160.56;;;9.77;100.00
64354;BME280;50681;53.334;-6.536;2023-02-18T04:06:12;101139.78;;;9.62;100.00
64354;BME280;50681;53.334;-6.536;2023-02-18T04:08:37;101157.56;;;9.58;100.00
64354;BME280;50681;53.334;-6.536;2023-02-18T04:11:03;101158.88;;;9.45;100.00
64354;BME280;50681;53.334;-6.536;2023-02-18T04:13:29;101164.03;;;9.46;100.00
64354;BME280;50681;53.334;-6.536;2023-02-18T04:15:55;101162.13;;;9.47;100.00
64354;BME280;50681;53.334;-6.536;2023-02-18T04:18:20;101131.09;;;9.34;100.00
64354;BME280;50681;53.334;-6.536;2023-02-18T04:20:46;101150.81;;;9.50;100.00
64354;BME280;50681;53.334;-6.536;2023-02-18T04:23:12;101138.41;;;9.49;100.00
64354;BME280;50681;53.334;-6.536;2023-02-18T04:25:37;101129.50;;;9.43;100.00
64354;BME280;50681;53.334;-6.536;2023-02-18T04:28:03;101110.38;;;9.45;100.00
64354;BME280;50681;53.334;-6.536;2023-02-18T04:30:29;101130.84;;;9.51;100.00
64354;BME280;50681;53.334;-6.536;2023-02-18T04:32:55;101123.84;;;9.50;100.00
64354;BME280;50681;53.334;-6.536;2023-02-18T04:35:20;101144.63;;;9.54;100.00
64354;BME280;50681;53.334;-6.536;2023-02-18T04:37:45;101130.31;;;9.44;100.00
64354;BME280;50681;53.334;-6.536;2023-02-18T04:40:11;101154.88;;;9.63;100.00
64354;BME280;50681;53.334;-6.536;2023-02-18T04:42:37;101150.56;;;9.56;100.00
64354;BME280;50681;53.334;-6.536;2023-02-18T04:45:03;101144.34;;;9.51;100.00
64354;BME280;50681;53.334;-6.536;2023-02-18T04:47:28;101143.25;;;9.41;100.00
64354;BME280;50681;53.334;-6.536;2023-02-18T04:49:53;101144.31;;;9.40;100.00
64354;BME280;50681;53.334;-6.536;2023-02-18T04:52:19;101145.69;;;9.48;100.00
64354;BME280;50681;53.334;-6.536;2023-02-18T04:54:44;101129.22;;;9.39;100.00
64354;BME280;50681;53.334;-6.536;2023-02-18T04:57:10;101156.19;;;9.50;100.00
64354;BME280;50681;53.334;-6.536;2023-02-18T04:59:36;101143.78;;;9.49;100.00
64354;BME280;50681;53.334;-6.536;2023-02-18T05:02:02;101143.00;;;9.43;100.00
64354;BME280;50681;53.334;-6.536;2023-02-18T05:04:27;101155.66;;;9.53;100.00
64354;BME280;50681;53.334;-6.536;2023-02-18T05:06:53;101153.50;;;9.50;100.00
64354;BME280;50681;53.334;-6.536;2023-02-18T05:09:18;101137.59;;;9.38;100.00
64354;BME280;50681;53.334;-6.536;2023-02-18T05:11:44;101146.75;;;9.37;100.00
64354;BME280;50681;53.334;-6.536;2023-02-18T05:14:10;101165.63;;;9.37;100.00
64354;BME280;50681;53.334;-6.536;2023-02-18T05:16:35;101151.03;;;9.22;100.00
64354;BME280;50681;53.334;-6.536;2023-02-18T05:19:01;101164.50;;;9.22;100.00
64354;BME280;50681;53.334;-6.536;2023-02-18T05:21:26;101147.72;;;9.00;100.00
64354;BME280;50681;53.334;-6.536;2023-02-18T05:23:52;101145.53;;;8.96;100.00
64354;BME280;50681;53.334;-6.536;2023-02-18T05:26:17;101158.75;;;9.03;100.00
64354;BME280;50681;53.334;-6.536;2023-02-18T05:28:43;101135.28;;;8.88;100.00
64354;BME280;50681;53.334;-6.536;2023-02-18T05:31:08;101166.03;;;8.97;100.00
64354;BME280;50681;53.334;-6.536;2023-02-18T05:33:34;101144.97;;;8.89;100.00
64354;BME280;50681;53.334;-6.536;2023-02-18T05:35:59;101135.25;;;8.83;100.00
64354;BME280;50681;53.334;-6.536;2023-02-18T05:38:25;101142.84;;;8.96;100.00
64354;BME280;50681;53.334;-6.536;2023-02-18T05:40:50;101152.81;;;8.96;100.00
64354;BME280;50681;53.334;-6.536;2023-02-18T05:43:16;101152.53;;;8.92;100.00
64354;BME280;50681;53.334;-6.536;2023-02-18T05:45:41;101126.88;;;8.79;100.00
64354;BME280;50681;53.334;-6.536;2023-02-18T05:48:07;101141.69;;;8.77;100.00
64354;BME280;50681;53.334;-6.536;2023-02-18T05:50:33;101159.56;;;8.99;100.00
64354;BME280;50681;53.334;-6.536;2023-02-18T05:52:58;101139.63;;;8.94;100.00
64354;BME280;50681;53.334;-6.536;2023-02-18T05:55:24;101114.53;;;8.94;100.00
64354;BME280;50681;53.334;-6.536;2023-02-18T05:57:49;101128.09;;;9.15;100.00
64354;BME280;50681;53.334;-6.536;2023-02-18T06:00:15;101147.28;;;9.29;100.00
64354;BME280;50681;53.334;-6.536;2023-02-18T06:02:41;101135.69;;;9.33;100.00
64354;BME280;50681;53.334;-6.536;2023-02-18T06:05:10;101135.44;;;9.40;100.00
64354;BME280;50681;53.334;-6.536;2023-02-18T06:07:35;101131.94;;;9.45;100.00
64354;BME280;50681;53.334;-6.536;2023-02-18T06:10:01;101145.72;;;9.64;100.00
64354;BME280;50681;53.334;-6.536;2023-02-18T06:12:27;101121.97;;;9.55;100.00
64354;BME280;50681;53.334;-6.536;2023-02-18T06:14:52;101110.91;;;9.52;100.00
64354;BME280;50681;53.334;-6.536;2023-02-18T06:17:21;101130.09;;;9.71;100.00
64354;BME280;50681;53.334;-6.536;2023-02-18T06:19:47;101113.06;;;9.65;100.00
64354;BME280;50681;53.334;-6.536;2023-02-18T06:22:13;101117.13;;;9.63;100.00
64354;BME280;50681;53.334;-6.536;2023-02-18T06:24:39;101119.84;;;9.68;100.00
64354;BME280;50681;53.334;-6.536;2023-02-18T06:27:04;101122.25;;;9.69;100.00
64354;BME280;50681;53.334;-6.536;2023-02-18T06:29:30;101124.69;;;9.71;100.00
64354;BME280;50681;53.334;-6.536;2023-02-18T06:31:57;101114.97;;;9.70;100.00
64354;BME280;50681;53.334;-6.536;2023-02-18T06:34:22;101118.22;;;9.67;100.00
64354;BME280;50681;53.334;-6.536;2023-02-18T06:36:48;101107.44;;;9.67;100.00
64354;BME280;50681;53.334;-6.536;2023-02-18T06:39:13;101096.09;;;9.49;100.00
64354;BME280;50681;53.334;-6.536;2023-02-18T06:41:38;101115.22;;;9.63;100.00
64354;BME280;50681;53.334;-6.536;2023-02-18T06:44:05;101109.03;;;9.58;100.00
64354;BME280;50681;53.334;-6.536;2023-02-18T06:46:32;101093.41;;;9.54;100.00
64354;BME280;50681;53.334;-6.536;2023-02-18T06:48:58;101101.50;;;9.54;100.00
64354;BME280;50681;53.334;-6.536;2023-02-18T06:51:24;101123.31;;;9.68;100.00
64354;BME280;50681;53.334;-6.536;2023-02-18T06:53:49;101115.25;;;9.68;100.00
64354;BME280;50681;53.334;-6.536;2023-02-18T06:56:15;101105.81;;;9.66;100.00
64354;BME280;50681;53.334;-6.536;2023-02-18T06:58:40;101119.31;;;9.71;100.00
64354;BME280;50681;53.334;-6.536;2023-02-18T07:01:08;101106.88;;;9.60;100.00
64354;BME280;50681;53.334;-6.536;2023-02-18T07:03:34;101129.81;;;9.73;100.00
64354;BME280;50681;53.334;-6.536;2023-02-18T07:05:59;101117.41;;;9.66;100.00
64354;BME280;50681;53.334;-6.536;2023-02-18T07:08:25;101143.28;;;9.73;100.00
64354;BME280;50681;53.334;-6.536;2023-02-18T07:10:51;101144.09;;;9.73;100.00
64354;BME280;50681;53.334;-6.536;2023-02-18T07:13:16;101147.34;;;9.70;100.00
64354;BME280;50681;53.334;-6.536;2023-02-18T07:15:42;101164.59;;;9.64;100.00
64354;BME280;50681;53.334;-6.536;2023-02-18T07:18:07;101147.31;;;9.54;100.00
64354;BME280;50681;53.334;-6.536;2023-02-18T07:20:33;101184.28;;;9.69;100.00
64354;BME280;50681;53.334;-6.536;2023-02-18T07:22:59;101175.38;;;9.59;100.00
64354;BME280;50681;53.334;-6.536;2023-02-18T07:25:24;101183.72;;;9.67;100.00
64354;BME280;50681;53.334;-6.536;2023-02-18T07:27:50;101162.97;;;9.58;100.00
64354;BME280;50681;53.334;-6.536;2023-02-18T07:30:17;101181.31;;;9.66;100.00
64354;BME280;50681;53.334;-6.536;2023-02-18T07:32:42;101189.66;;;9.69;100.00
64354;BME280;50681;53.334;-6.536;2023-02-18T07:35:10;101188.06;;;9.74;100.00
64354;BME280;50681;53.334;-6.536;2023-02-18T07:37:37;101187.81;;;9.75;100.00
64354;BME280;50681;53.334;-6.536;2023-02-18T07:40:03;101179.72;;;9.75;100.00
64354;BME280;50681;53.334;-6.536;2023-02-18T07:42:29;101181.31;;;9.66;100.00
64354;BME280;50681;53.334;-6.536;2023-02-18T07:44:54;101175.91;;;9.55;100.00
64354;BME280;50681;53.334;-6.536;2023-02-18T07:47:20;101168.31;;;9.37;100.00
64354;BME280;50681;53.334;-6.536;2023-02-18T07:49:45;101173.16;;;9.40;100.00
64354;BME280;50681;53.334;-6.536;2023-02-18T07:52:12;101198.25;;;9.46;100.00
64354;BME280;50681;53.334;-6.536;2023-02-18T07:54:38;101204.44;;;9.46;100.00
64354;BME280;50681;53.334;-6.536;2023-02-18T07:57:03;101205.25;;;9.47;100.00
64354;BME280;50681;53.334;-6.536;2023-02-18T07:59:28;101201.75;;;9.41;100.00
64354;BME280;50681;53.334;-6.536;2023-02-18T08:01:54;101227.66;;;9.52;100.00
64354;BME280;50681;53.334;-6.536;2023-02-18T08:04:19;101219.00;;;9.45;100.00
64354;BME280;50681;53.334;-6.536;2023-02-18T08:06:46;101212.81;;;9.55;100.00
64354;BME280;50681;53.334;-6.536;2023-02-18T08:09:13;101211.47;;;9.52;100.00
64354;BME280;50681;53.334;-6.536;2023-02-18T08:11:39;101227.41;;;9.69;100.00
64354;BME280;50681;53.334;-6.536;2023-02-18T08:14:04;101219.59;;;9.63;100.00
64354;BME280;50681;53.334;-6.536;2023-02-18T08:16:30;101233.91;;;9.74;100.00
64354;BME280;50681;53.334;-6.536;2023-02-18T08:18:56;101239.59;;;9.77;100.00
64354;BME280;50681;53.334;-6.536;2023-02-18T08:21:23;101223.41;;;9.77;100.00
64354;BME280;50681;53.334;-6.536;2023-02-18T08:23:49;101211.78;;;9.66;100.00
64354;BME280;50681;53.334;-6.536;2023-02-18T08:26:15;101226.09;;;9.82;100.00
64354;BME280;50681;53.334;-6.536;2023-02-18T08:28:40;101219.09;;;9.76;100.00
64354;BME280;50681;53.334;-6.536;2023-02-18T08:31:06;101218.25;;;9.65;100.00
64354;BME280;50681;53.334;-6.536;2023-02-18T08:33:32;101234.44;;;9.81;100.00
64354;BME280;50681;53.334;-6.536;2023-02-18T08:35:57;101233.38;;;9.77;100.00
64354;BME280;50681;53.334;-6.536;2023-02-18T08:38:23;101239.06;;;9.85;100.00
64354;BME280;50681;53.334;-6.536;2023-02-18T08:40:49;101229.34;;;9.84;100.00
64354;BME280;50681;53.334;-6.536;2023-02-18T08:43:16;101247.97;;;9.91;100.00
64354;BME280;50681;53.334;-6.536;2023-02-18T08:45:42;101243.66;;;10.06;100.00
64354;BME280;50681;53.334;-6.536;2023-02-18T08:48:09;101243.94;;;10.09;100.00
64354;BME280;50681;53.334;-6.536;2023-02-18T08:50:35;101234.78;;;10.10;100.00
64354;BME280;50681;53.334;-6.536;2023-02-18T08:53:00;101241.25;;;10.04;100.00
64354;BME280;50681;53.334;-6.536;2023-02-18T08:55:31;101245.00;;;9.98;100.00
64354;BME280;50681;53.334;-6.536;2023-02-18T08:57:57;101260.63;;;9.80;100.00
64354;BME280;50681;53.334;-6.536;2023-02-18T09:00:23;101258.94;;;9.53;100.00
64354;BME280;50681;53.334;-6.536;2023-02-18T09:02:48;101260.56;;;9.60;100.00
64354;BME280;50681;53.334;-6.536;2023-02-18T09:05:14;101265.66;;;9.51;100.00
64354;BME280;50681;53.334;-6.536;2023-02-18T09:07:39;101262.13;;;9.40;100.00
64354;BME280;50681;53.334;-6.536;2023-02-18T09:10:06;101289.13;;;9.50;100.00
64354;BME280;50681;53.334;-6.536;2023-02-18T09:12:32;101279.38;;;9.44;100.00
64354;BME280;50681;53.334;-6.536;2023-02-18T09:14:58;101299.66;;;9.62;100.00
64354;BME280;50681;53.334;-6.536;2023-02-18T09:17:25;101278.34;;;9.55;100.00
64354;BME280;50681;53.334;-6.536;2023-02-18T09:19:50;101294.00;;;9.64;100.00
64354;BME280;50681;53.334;-6.536;2023-02-18T09:22:16;101294.00;;;9.64;100.00
64354;BME280;50681;53.334;-6.536;2023-02-18T09:24:42;101287.59;;;9.75;100.00
64354;BME280;50681;53.334;-6.536;2023-02-18T09:27:07;101279.50;;;9.80;100.00
64354;BME280;50681;53.334;-6.536;2023-02-18T09:29:33;101277.91;;;9.90;100.00
64354;BME280;50681;53.334;-6.536;2023-02-18T09:32:00;101279.53;;;9.96;100.00
64354;BME280;50681;53.334;-6.536;2023-02-18T09:34:26;101281.72;;;9.99;100.00
64354;BME280;50681;53.334;-6.536;2023-02-18T09:36:52;101268.22;;;10.09;100.00
64354;BME280;50681;53.334;-6.536;2023-02-18T09:39:18;101288.22;;;10.19;100.00
64354;BME280;50681;53.334;-6.536;2023-02-18T09:41:47;101270.94;;;10.14;100.00
64354;BME280;50681;53.334;-6.536;2023-02-18T09:49:29;101290.13;;;10.44;100.00
64354;BME280;50681;53.334;-6.536;2023-02-18T09:52:13;101289.59;;;10.52;100.00
64354;BME280;50681;53.334;-6.536;2023-02-18T09:54:40;101279.88;;;10.67;100.00
64354;BME280;50681;53.334;-6.536;2023-02-18T09:57:17;101274.47;;;10.56;100.00
64354;BME280;50681;53.334;-6.536;2023-02-18T09:59:48;101289.31;;;10.74;100.00
64354;BME280;50681;53.334;-6.536;2023-02-18T10:02:17;101290.38;;;10.84;100.00
64354;BME280;50681;53.334;-6.536;2023-02-18T10:04:44;101272.53;;;10.83;100.00
64354;BME280;50681;53.334;-6.536;2023-02-18T10:07:20;101277.69;;;10.90;100.00
64354;BME280;50681;53.334;-6.536;2023-02-18T10:09:48;101300.91;;;11.01;100.00
64354;BME280;50681;53.334;-6.536;2023-02-18T10:12:19;101293.88;;;10.90;100.00
64354;BME280;50681;53.334;-6.536;2023-02-18T10:14:49;101306.56;;;10.94;100.00
64354;BME280;50681;53.334;-6.536;2023-02-18T10:17:16;101290.09;;;10.91;100.00
64354;BME280;50681;53.334;-6.536;2023-02-18T10:19:41;101304.09;;;11.24;100.00
64354;BME280;50681;53.334;-6.536;2023-02-18T10:22:10;101301.63;;;11.22;100.00
64354;BME280;50681;53.334;-6.536;2023-02-18T10:24:39;101287.03;;;11.23;100.00
64354;BME280;50681;53.334;-6.536;2023-02-18T10:27:08;101301.59;;;11.32;100.00
64354;BME280;50681;53.334;-6.536;2023-02-18T10:29:34;101285.41;;;11.22;100.00
64354;BME280;50681;53.334;-6.536;2023-02-18T10:32:11;101306.50;;;11.25;100.00
64354;BME280;50681;53.334;-6.536;2023-02-18T10:35:24;101296.72;;;11.35;100.00
64354;BME280;50681;53.334;-6.536;2023-02-18T10:51:30;101287.63;;;10.99;100.00
64354;BME280;50681;53.334;-6.536;2023-02-18T10:54:03;101306.25;;;11.22;100.00
64354;BME280;50681;53.334;-6.536;2023-02-18T10:56:49;101299.47;;;11.19;100.00
64354;BME280;50681;53.334;-6.536;2023-02-18T10:59:26;101288.44;;;11.10;100.00
64354;BME280;50681;53.334;-6.536;2023-02-18T11:01:59;101281.16;;;11.00;100.00
64354;BME280;50681;53.334;-6.536;2023-02-18T11:04:37;101301.94;;;11.15;100.00
64354;BME280;50681;53.334;-6.536;2023-02-18T11:07:13;101289.75;;;11.18;100.00
64354;BME280;50681;53.334;-6.536;2023-02-18T11:12:26;101312.47;;;11.17;100.00
64354;BME280;50681;53.334;-6.536;2023-02-18T11:17:32;101316.50;;;11.25;100.00
64354;BME280;50681;53.334;-6.536;2023-02-18T11:20:01;101295.91;;;11.39;100.00
64354;BME280;50681;53.334;-6.536;2023-02-18T11:22:33;101304.25;;;11.48;100.00
64354;BME280;50681;53.334;-6.536;2023-02-18T11:25:01;101302.72;;;11.26;100.00
64354;BME280;50681;53.334;-6.536;2023-02-18T11:27:55;101293.84;;;11.15;100.00
64354;BME280;50681;53.334;-6.536;2023-02-18T11:30:22;101300.91;;;10.96;100.00
64354;BME280;50681;53.334;-6.536;2023-02-18T11:32:53;101270.69;;;10.78;100.00
64354;BME280;50681;53.334;-6.536;2023-02-18T11:35:26;101295.22;;;10.97;100.00
64354;BME280;50681;53.334;-6.536;2023-02-18T11:37:55;101260.41;;;10.70;100.00
64354;BME280;50681;53.334;-6.536;2023-02-18T11:40:25;101301.69;;;10.96;100.00
64354;BME280;50681;53.334;-6.536;2023-02-18T11:43:11;101271.22;;;10.80;100.00
64354;BME280;50681;53.334;-6.536;2023-02-18T11:45:37;101270.38;;;10.80;100.00
64354;BME280;50681;53.334;-6.536;2023-02-18T11:48:23;101289.28;;;10.95;100.00
64354;BME280;50681;53.334;-6.536;2023-02-18T11:50:52;101303.31;;;10.92;100.00
64354;BME280;50681;53.334;-6.536;2023-02-18T11:53:32;101320.91;;;10.84;100.00
64354;BME280;50681;53.334;-6.536;2023-02-18T11:56:15;101302.81;;;10.69;100.00
64354;BME280;50681;53.334;-6.536;2023-02-18T11:58:48;101296.31;;;10.70;100.00
64354;BME280;50681;53.334;-6.536;2023-02-18T12:04:13;101295.19;;;11.08;100.00
64354;BME280;50681;53.334;-6.536;2023-02-18T12:09:42;101312.63;;;11.57;100.00
64354;BME280;50681;53.334;-6.536;2023-02-18T12:14:49;101312.63;;;11.57;100.00
64354;BME280;50681;53.334;-6.536;2023-02-18T12:28:50;101309.13;;;11.51;100.00
64354;BME280;50681;53.334;-6.536;2023-02-18T12:39:11;101310.44;;;11.59;100.00
64354;BME280;50681;53.334;-6.536;2023-02-18T12:50:26;101287.81;;;11.89;100.00
64354;BME280;50681;53.334;-6.536;2023-02-18T12:55:53;101289.53;;;11.75;100.00
64354;BME280;50681;53.334;-6.536;2023-02-18T12:58:44;101284.47;;;11.63;100.00
64354;BME280;50681;53.334;-6.536;2023-02-18T13:01:25;101291.19;;;11.71;100.00
64354;BME280;50681;53.334;-6.536;2023-02-18T13:04:14;101282.25;;;11.70;100.00
64354;BME280;50681;53.334;-6.536;2023-02-18T13:12:42;101275.81;;;11.61;100.00
64354;BME280;50681;53.334;-6.536;2023-02-18T13:15:27;101260.44;;;11.51;100.00
64354;BME280;50681;53.334;-6.536;2023-02-18T13:17:57;101289.38;;;11.56;100.00
64354;BME280;50681;53.334;-6.536;2023-02-18T13:22:56;101279.53;;;10.94;100.00
64354;BME280;50681;53.334;-6.536;2023-02-18T13:25:22;101290.09;;;11.01;100.00
64354;BME280;50681;53.334;-6.536;2023-02-18T13:30:33;101295.47;;;11.11;100.00
64354;BME280;50681;53.334;-6.536;2023-02-18T13:33:25;101288.59;;;11.40;100.00
64354;BME280;50681;53.334;-6.536;2023-02-18T13:39:08;101273.44;;;11.44;100.00
64354;BME280;50681;53.334;-6.536;2023-02-18T13:41:40;101262.66;;;11.39;100.00
64354;BME280;50681;53.334;-6.536;2023-02-18T13:46:51;101269.84;;;11.64;100.00
64354;BME280;50681;53.334;-6.536;2023-02-18T13:49:22;101271.66;;;11.79;100.00
64354;BME280;50681;53.334;-6.536;2023-02-18T13:51:53;101278.44;;;11.76;100.00
64354;BME280;50681;53.334;-6.536;2023-02-18T13:54:42;101272.06;;;11.52;100.00
64354;BME280;50681;53.334;-6.536;2023-02-18T13:57:15;101247.28;;;11.29;100.00
64354;BME280;50681;53.334;-6.536;2023-02-18T13:59:47;101271.56;;;11.44;100.00
64354;BME280;50681;53.334;-6.536;2023-02-18T14:09:45;101269.09;;;11.48;100.00
64354;BME280;50681;53.334;-6.536;2023-02-18T14:12:25;101264.19;;;11.60;100.00
64354;BME280;50681;53.334;-6.536;2023-02-18T14:14:51;101257.16;;;11.54;100.00
64354;BME280;50681;53.334;-6.536;2023-02-18T14:20:21;101234.56;;;11.29;100.00
64354;BME280;50681;53.334;-6.536;2023-02-18T14:27:38;101233.94;;;11.48;100.00
64354;BME280;50681;53.334;-6.536;2023-02-18T14:30:18;101239.34;;;11.48;100.00
64354;BME280;50681;53.334;-6.536;2023-02-18T14:32:44;101219.44;;;11.28;100.00
64354;BME280;50681;53.334;-6.536;2023-02-18T14:40:50;101243.09;;;11.57;100.00
64354;BME280;50681;53.334;-6.536;2023-02-18T14:51:07;101243.59;;;11.65;100.00
64354;BME280;50681;53.334;-6.536;2023-02-18T14:53:39;101257.69;;;11.56;100.00
64354;BME280;50681;53.334;-6.536;2023-02-18T14:56:08;101267.34;;;11.73;100.00